createdAt,value
2019-05-05T00:00:41.815Z,324.97
2019-05-05T00:01:41.780Z,317.80
2019-05-05T00:02:41.817Z,329.39
2019-05-05T00:03:41.770Z,327.33
2019-05-05T00:04:41.768Z,325.43
2019-05-05T00:05:41.747Z,318.17
2019-05-05T00:06:41.740Z,321.90
2019-05-05T00:07:41.771Z,316.88
2019-05-05T00:08:41.718Z,321.15
2019-05-05T00:09:41.700Z,314.37
2019-05-05T00:10:41.705Z,320.34
2019-05-05T00:11:41.682Z,314.78
2019-05-05T00:12:41.694Z,320.88
2019-05-05T00:13:41.660Z,315.11
2019-05-05T00:14:41.657Z,314.56
2019-05-05T00:15:41.641Z,314.55
2019-05-05T00:16:41.631Z,315.57
2019-05-05T00:17:41.656Z,315.58
2019-05-05T00:18:41.611Z,315.93
2019-05-05T00:19:41.594Z,320.51
2019-05-05T00:20:41.596Z,319.10
2019-05-05T00:21:41.572Z,319.80
2019-05-05T00:22:41.578Z,319.15
2019-05-05T00:23:41.562Z,320.29
2019-05-05T00:24:41.559Z,320.50
2019-05-05T00:25:41.539Z,321.48
2019-05-05T00:26:41.518Z,322.12
2019-05-05T00:27:41.549Z,322.24
2019-05-05T00:28:41.502Z,320.71
2019-05-05T00:29:41.494Z,320.85
2019-05-05T00:30:41.475Z,321.46
2019-05-05T00:31:41.460Z,322.70
2019-05-05T00:32:41.455Z,322.29
2019-05-05T00:33:41.453Z,323.17
2019-05-05T00:34:41.425Z,321.60
2019-05-05T00:35:41.430Z,320.90
2019-05-05T00:36:41.409Z,320.86
2019-05-05T00:37:41.401Z,321.35
2019-05-05T00:38:41.416Z,321.35
2019-05-05T00:39:41.378Z,321.16
2019-05-05T00:40:41.359Z,320.17
2019-05-05T00:41:41.345Z,320.16
2019-05-05T00:42:41.336Z,318.23
2019-05-05T00:43:41.339Z,317.84
2019-05-05T00:44:41.311Z,317.92
2019-05-05T00:45:41.311Z,317.49
2019-05-05T00:46:41.302Z,316.26
2019-05-05T00:47:41.281Z,318.80
2019-05-05T00:48:41.309Z,319.76
2019-05-05T00:49:46.357Z,320.00
2019-05-05T00:50:42.260Z,319.75
2019-05-05T00:51:41.239Z,318.10
2019-05-05T00:52:41.243Z,316.70
2019-05-05T00:53:41.255Z,317.41
2019-05-05T00:54:41.221Z,319.24
2019-05-05T00:55:41.197Z,319.89
2019-05-05T00:56:41.186Z,321.26
2019-05-05T00:57:41.173Z,323.06
2019-05-05T00:58:41.194Z,322.05
2019-05-05T00:59:41.261Z,322.46
2019-05-05T01:00:41.161Z,324.40
2019-05-05T01:01:41.135Z,323.85
2019-05-05T01:02:41.155Z,322.92
2019-05-05T01:03:41.143Z,322.75
2019-05-05T01:04:41.119Z,323.44
2019-05-05T01:05:41.096Z,322.35
2019-05-05T01:06:41.078Z,324.00
2019-05-05T01:07:41.065Z,321.56
2019-05-05T01:08:41.078Z,322.36
2019-05-05T01:09:41.086Z,321.90
2019-05-05T01:10:41.027Z,321.86
2019-05-05T01:11:41.025Z,321.58
2019-05-05T01:12:41.001Z,320.72
2019-05-05T01:13:41.020Z,319.16
2019-05-05T01:14:40.993Z,318.48
2019-05-05T01:15:40.977Z,322.06
2019-05-05T01:16:40.962Z,322.35
2019-05-05T01:17:40.958Z,321.29
2019-05-05T01:18:40.971Z,320.06
2019-05-05T01:19:40.938Z,320.21
2019-05-05T01:20:40.917Z,320.08
2019-05-05T01:21:40.914Z,321.95
2019-05-05T01:22:40.904Z,322.19
2019-05-05T01:23:40.922Z,322.35
2019-05-05T01:24:40.882Z,319.49
2019-05-05T01:25:40.878Z,322.56
2019-05-05T01:26:40.854Z,322.78
2019-05-05T01:27:40.850Z,322.15
2019-05-05T01:28:40.860Z,321.81
2019-05-05T01:29:40.838Z,317.90
2019-05-05T01:30:40.816Z,317.85
2019-05-05T01:31:40.803Z,318.15
2019-05-05T01:32:40.800Z,319.34
2019-05-05T01:33:40.788Z,320.43
2019-05-05T01:34:40.818Z,319.50
2019-05-05T01:35:40.783Z,318.99
2019-05-05T01:36:40.752Z,319.47
2019-05-05T01:37:40.739Z,318.48
2019-05-05T01:38:40.724Z,319.06
2019-05-05T01:39:40.740Z,319.17
2019-05-05T01:40:40.704Z,317.62
2019-05-05T01:41:40.687Z,318.82
2019-05-05T01:42:40.693Z,318.58
2019-05-05T01:43:40.663Z,319.58
2019-05-05T01:44:40.692Z,318.17
2019-05-05T01:45:40.645Z,318.47
2019-05-05T01:46:40.646Z,319.09
2019-05-05T01:51:09.588Z,294.11
2019-05-05T01:52:09.548Z,316.76
2019-05-05T01:53:09.535Z,317.38
2019-05-05T01:54:09.517Z,316.47
2019-05-05T01:55:09.538Z,315.82
2019-05-05T01:56:09.499Z,315.91
2019-05-05T01:57:09.487Z,315.71
2019-05-05T01:58:09.476Z,317.10
2019-05-05T01:59:09.471Z,316.49
2019-05-05T02:00:09.470Z,318.75
2019-05-05T02:01:09.438Z,317.77
2019-05-05T02:02:09.430Z,316.31
2019-05-05T02:03:09.419Z,317.04
2019-05-05T02:04:09.402Z,315.61
2019-05-05T02:05:09.414Z,317.03
2019-05-05T02:06:09.384Z,317.81
2019-05-05T02:07:09.389Z,317.24
2019-05-05T02:08:09.364Z,316.87
2019-05-05T02:09:09.353Z,319.96
2019-05-05T02:10:09.389Z,320.77
2019-05-05T02:11:10.935Z,318.26
2019-05-05T02:12:09.322Z,318.13
2019-05-05T02:13:09.305Z,318.58
2019-05-05T02:14:09.309Z,317.85
2019-05-05T02:15:09.349Z,316.58
2019-05-05T02:16:09.279Z,316.30
2019-05-05T02:17:09.260Z,316.45
2019-05-05T02:18:09.301Z,317.60
2019-05-05T02:19:09.243Z,318.11
2019-05-05T02:20:09.264Z,319.16
2019-05-05T02:21:09.243Z,319.09
2019-05-05T02:22:09.273Z,311.22
2019-05-05T02:23:09.195Z,316.59
2019-05-05T02:24:09.203Z,308.60
2019-05-05T02:25:09.205Z,309.17
2019-05-05T02:26:09.181Z,311.85
2019-05-05T02:27:09.152Z,317.00
2019-05-05T02:28:09.162Z,307.98
2019-05-05T02:29:09.137Z,307.48
2019-05-05T02:30:09.157Z,308.01
2019-05-05T02:31:09.110Z,316.55
2019-05-05T02:32:09.102Z,310.05
2019-05-05T02:33:09.108Z,310.88
2019-05-05T02:34:09.113Z,316.86
2019-05-05T02:35:09.107Z,315.55
2019-05-05T02:36:09.082Z,315.88
2019-05-05T02:37:09.051Z,317.70
2019-05-05T02:38:09.036Z,321.36
2019-05-05T02:39:09.023Z,317.52
2019-05-05T02:40:09.047Z,317.72
2019-05-05T02:41:09.021Z,317.65
2019-05-05T02:42:09.013Z,317.64
2019-05-05T02:43:08.980Z,320.23
2019-05-05T02:44:08.993Z,313.32
2019-05-05T02:45:08.974Z,319.01
2019-05-05T02:46:08.978Z,313.39
2019-05-05T02:47:08.962Z,313.44
2019-05-05T02:48:08.922Z,318.65
2019-05-05T02:49:08.935Z,313.27
2019-05-05T02:50:08.911Z,312.81
2019-05-05T02:51:08.979Z,312.12
2019-05-05T02:52:08.884Z,311.87
2019-05-05T02:53:08.871Z,311.79
2019-05-05T02:54:08.862Z,317.94
2019-05-05T02:55:08.850Z,311.44
2019-05-05T02:56:08.870Z,316.12
2019-05-05T02:57:08.822Z,310.32
2019-05-05T02:58:08.814Z,310.49
2019-05-05T02:59:08.811Z,316.16
2019-05-05T03:00:08.788Z,310.76
2019-05-05T03:01:08.800Z,315.11
2019-05-05T03:02:08.777Z,315.75
2019-05-05T03:03:08.764Z,314.88
2019-05-05T03:04:08.756Z,309.74
2019-05-05T03:05:08.734Z,309.44
2019-05-05T03:06:08.769Z,308.97
2019-05-05T03:07:08.772Z,315.45
2019-05-05T03:08:08.716Z,309.03
2019-05-05T03:09:08.693Z,315.80
2019-05-05T03:10:08.692Z,314.71
2019-05-05T03:11:08.678Z,315.37
2019-05-05T03:12:11.028Z,308.45
2019-05-05T03:13:08.655Z,308.81
2019-05-05T03:14:08.650Z,308.81
2019-05-05T03:15:08.623Z,308.36
2019-05-05T03:16:08.623Z,308.02
2019-05-05T03:17:08.627Z,310.47
2019-05-05T03:18:08.610Z,314.25
2019-05-05T03:19:08.584Z,309.30
2019-05-05T03:20:08.582Z,308.48
2019-05-05T03:21:08.562Z,310.23
2019-05-05T03:22:08.575Z,308.78
2019-05-05T03:23:08.545Z,308.32
2019-05-05T03:24:08.525Z,308.30
2019-05-05T03:25:08.517Z,315.00
2019-05-05T03:26:08.501Z,308.52
2019-05-05T03:27:08.521Z,311.60
2019-05-05T03:28:08.497Z,311.01
2019-05-05T03:29:08.475Z,311.52
2019-05-05T03:30:08.466Z,311.88
2019-05-05T03:31:08.464Z,317.76
2019-05-05T03:32:11.534Z,311.83
2019-05-05T03:33:08.428Z,317.11
2019-05-05T03:34:08.439Z,311.34
2019-05-05T03:35:08.430Z,317.22
2019-05-05T03:36:08.403Z,309.97
2019-05-05T03:37:08.407Z,316.86
2019-05-05T03:38:08.381Z,311.89
2019-05-05T03:39:08.381Z,318.41
2019-05-05T03:40:08.361Z,315.39
2019-05-05T03:41:08.345Z,315.38
2019-05-05T03:42:08.363Z,309.33
2019-05-05T03:43:08.319Z,315.41
2019-05-05T03:44:08.341Z,310.89
2019-05-05T03:45:08.304Z,308.89
2019-05-05T03:46:08.289Z,309.53
2019-05-05T03:47:08.285Z,308.95
2019-05-05T03:48:08.300Z,311.45
2019-05-05T03:49:08.262Z,311.17
2019-05-05T03:50:08.244Z,311.02
2019-05-05T03:51:18.294Z,315.29
2019-05-05T03:52:09.330Z,309.73
2019-05-05T03:53:08.237Z,309.60
2019-05-05T03:54:08.201Z,309.67
2019-05-05T03:55:08.193Z,315.65
2019-05-05T03:56:08.188Z,310.65
2019-05-05T03:57:08.167Z,310.33
2019-05-05T03:58:08.188Z,314.73
2019-05-05T03:59:08.155Z,316.03
2019-05-05T04:00:08.142Z,315.16
2019-05-05T04:01:08.136Z,313.94
2019-05-05T04:02:08.107Z,314.28
2019-05-05T04:03:08.134Z,315.74
2019-05-05T04:04:08.091Z,313.92
2019-05-05T04:05:08.084Z,314.10
2019-05-05T04:06:08.072Z,313.75
2019-05-05T04:07:08.074Z,314.15
2019-05-05T04:08:08.067Z,314.53
2019-05-05T04:09:08.034Z,313.58
2019-05-05T04:10:08.039Z,313.79
2019-05-05T04:11:08.008Z,313.44
2019-05-05T04:12:08.012Z,313.02
2019-05-05T04:13:08.026Z,312.84
2019-05-05T04:14:07.995Z,314.19
2019-05-05T04:15:07.982Z,315.56
2019-05-05T04:16:07.970Z,313.53
2019-05-05T04:17:07.949Z,313.84
2019-05-05T04:18:07.962Z,313.53
2019-05-05T04:19:07.939Z,313.65
2019-05-05T04:20:07.928Z,313.71
2019-05-05T04:21:07.908Z,314.81
2019-05-05T04:22:07.894Z,313.67
2019-05-05T04:23:07.916Z,313.94
2019-05-05T04:24:07.896Z,313.52
2019-05-05T04:25:07.871Z,314.04
2019-05-05T04:26:07.863Z,314.71
2019-05-05T04:27:07.847Z,313.95
2019-05-05T04:28:07.855Z,313.80
2019-05-05T04:29:08.421Z,313.93
2019-05-05T04:30:07.811Z,315.71
2019-05-05T04:31:07.802Z,314.35
2019-05-05T04:32:07.853Z,313.46
2019-05-05T04:33:07.811Z,313.84
2019-05-05T04:34:07.769Z,313.53
2019-05-05T04:35:07.764Z,313.26
2019-05-05T04:36:07.744Z,314.29
2019-05-05T04:37:07.745Z,313.36
2019-05-05T04:38:07.721Z,313.84
2019-05-05T04:39:07.739Z,314.13
2019-05-05T04:40:07.703Z,312.79
2019-05-05T04:41:07.677Z,313.01
2019-05-05T04:42:07.681Z,314.09
2019-05-05T04:43:07.691Z,312.34
2019-05-05T04:44:07.682Z,313.28
2019-05-05T04:45:07.652Z,312.74
2019-05-05T04:46:07.637Z,313.30
2019-05-05T04:47:07.617Z,313.42
2019-05-05T04:48:07.671Z,313.42
2019-05-05T04:49:07.630Z,313.50
2019-05-05T04:50:07.588Z,313.37
2019-05-05T04:51:07.585Z,315.52
2019-05-05T04:52:07.573Z,313.48
2019-05-05T04:53:07.555Z,313.98
2019-05-05T04:54:07.565Z,315.72
2019-05-05T04:55:07.525Z,315.15
2019-05-05T04:56:07.528Z,314.23
2019-05-05T04:57:07.515Z,313.77
2019-05-05T04:58:07.510Z,313.22
2019-05-05T04:59:07.519Z,313.38
2019-05-05T05:00:07.487Z,314.83
2019-05-05T05:01:07.470Z,314.15
2019-05-05T05:02:07.463Z,312.99
2019-05-05T05:03:07.449Z,314.30
2019-05-05T05:04:07.477Z,313.58
2019-05-05T05:05:07.432Z,313.42
2019-05-05T05:06:07.421Z,312.85
2019-05-05T05:07:07.398Z,312.95
2019-05-05T05:08:07.393Z,313.74
2019-05-05T05:09:07.387Z,315.72
2019-05-05T05:10:07.386Z,316.68
2019-05-05T05:11:07.361Z,314.52
2019-05-05T05:12:07.362Z,315.58
2019-05-05T05:13:07.329Z,314.47
2019-05-05T05:14:07.331Z,315.20
2019-05-05T05:15:07.347Z,314.89
2019-05-05T05:16:07.308Z,316.48
2019-05-05T05:17:07.291Z,315.51
2019-05-05T05:18:07.276Z,315.77
2019-05-05T05:19:07.274Z,315.93
2019-05-05T05:20:07.285Z,317.03
2019-05-05T05:21:07.254Z,318.70
2019-05-05T05:22:07.247Z,318.84
2019-05-05T05:23:07.239Z,317.84
2019-05-05T05:24:07.217Z,316.04
2019-05-05T05:25:07.232Z,318.73
2019-05-05T05:26:07.203Z,317.41
2019-05-05T05:27:07.204Z,314.64
2019-05-05T05:28:07.183Z,314.49
2019-05-05T05:29:07.153Z,314.96
2019-05-05T05:30:07.187Z,317.58
2019-05-05T05:31:07.147Z,316.24
2019-05-05T05:32:07.127Z,316.03
2019-05-05T05:33:07.120Z,317.75
2019-05-05T05:34:07.120Z,316.29
2019-05-05T05:35:07.124Z,315.28
2019-05-05T05:36:07.082Z,314.93
2019-05-05T05:37:07.080Z,315.17
2019-05-05T05:38:07.072Z,319.16
2019-05-05T05:39:07.053Z,318.23
2019-05-05T05:40:07.054Z,315.85
2019-05-05T05:41:07.024Z,316.13
2019-05-05T05:42:07.026Z,317.79
2019-05-05T05:43:07.022Z,314.64
2019-05-05T05:44:07.008Z,312.95
2019-05-05T05:45:07.015Z,314.43
2019-05-05T05:46:06.980Z,312.85
2019-05-05T05:47:06.962Z,314.39
2019-05-05T05:48:06.962Z,313.85
2019-05-05T05:49:06.942Z,316.29
2019-05-05T05:50:06.979Z,316.02
2019-05-05T05:51:06.918Z,317.40
2019-05-05T05:52:15.786Z,317.94
2019-05-05T05:53:07.901Z,316.36
2019-05-05T05:54:06.891Z,316.16
2019-05-05T05:55:06.883Z,315.19
2019-05-05T05:56:06.890Z,314.99
2019-05-05T05:57:06.871Z,315.37
2019-05-05T05:58:06.839Z,315.96
2019-05-05T05:59:06.823Z,315.34
2019-05-05T06:00:06.819Z,315.32
2019-05-05T06:01:06.852Z,314.75
2019-05-05T06:02:12.302Z,314.55
2019-05-05T06:03:07.795Z,315.44
2019-05-05T06:04:06.793Z,313.76
2019-05-05T06:05:06.771Z,311.77
2019-05-05T06:06:06.776Z,313.17
2019-05-05T06:07:06.762Z,314.31
2019-05-05T06:08:06.743Z,314.85
2019-05-05T06:09:06.723Z,312.62
2019-05-05T06:10:06.718Z,313.82
2019-05-05T06:11:06.761Z,314.82
2019-05-05T06:12:06.706Z,314.66
2019-05-05T06:13:06.750Z,312.98
2019-05-05T06:14:06.672Z,314.68
2019-05-05T06:15:06.664Z,313.25
2019-05-05T06:16:06.668Z,317.61
2019-05-05T06:17:06.663Z,314.68
2019-05-05T06:18:06.624Z,314.40
2019-05-05T06:19:06.607Z,314.57
2019-05-05T06:20:06.613Z,317.00
2019-05-05T06:21:06.609Z,316.39
2019-05-05T06:22:06.588Z,315.94
2019-05-05T06:23:06.577Z,315.43
2019-05-05T06:24:06.571Z,316.57
2019-05-05T06:25:07.017Z,314.09
2019-05-05T06:26:07.207Z,314.79
2019-05-05T06:27:06.544Z,315.99
2019-05-05T06:28:06.509Z,317.16
2019-05-05T06:29:06.515Z,315.15
2019-05-05T06:30:06.495Z,316.73
2019-05-05T06:31:06.507Z,318.17
2019-05-05T06:32:06.481Z,318.27
2019-05-05T06:33:06.464Z,314.42
2019-05-05T06:34:06.458Z,314.04
2019-05-05T06:35:06.444Z,313.50
2019-05-05T06:36:06.459Z,312.92
2019-05-05T06:37:06.414Z,313.37
2019-05-05T06:38:06.423Z,313.00
2019-05-05T06:39:06.396Z,313.27
2019-05-05T06:40:06.389Z,312.77
2019-05-05T06:41:06.392Z,312.90
2019-05-05T06:42:06.382Z,314.29
2019-05-05T06:43:06.348Z,312.48
2019-05-05T06:44:06.348Z,312.25
2019-05-05T06:45:06.873Z,313.59
2019-05-05T06:46:06.360Z,313.42
2019-05-05T06:47:06.305Z,313.85
2019-05-05T06:48:06.292Z,313.94
2019-05-05T06:49:06.288Z,314.02
2019-05-05T06:50:06.274Z,313.55
2019-05-05T06:51:06.262Z,312.74
2019-05-05T06:52:06.276Z,312.33
2019-05-05T06:53:06.273Z,312.89
2019-05-05T06:54:06.252Z,312.15
2019-05-05T06:55:06.228Z,314.17
2019-05-05T06:56:06.234Z,312.88
2019-05-05T06:57:06.236Z,314.67
2019-05-05T06:58:06.193Z,313.71
2019-05-05T06:59:06.184Z,314.12
2019-05-05T07:00:06.160Z,312.60
2019-05-05T07:01:06.229Z,312.47
2019-05-05T07:02:06.174Z,311.20
2019-05-05T07:03:07.883Z,311.99
2019-05-05T07:04:06.124Z,312.91
2019-05-05T07:05:06.120Z,312.29
2019-05-05T07:06:06.104Z,311.17
2019-05-05T07:07:06.106Z,311.43
2019-05-05T07:08:06.078Z,310.54
2019-05-05T07:09:06.070Z,310.90
2019-05-05T07:10:06.065Z,312.74
2019-05-05T07:11:06.086Z,312.67
2019-05-05T07:12:06.072Z,313.44
2019-05-05T07:13:06.032Z,313.44
2019-05-05T07:14:06.023Z,311.46
2019-05-05T07:15:06.005Z,311.24
2019-05-05T07:16:05.996Z,311.13
2019-05-05T07:17:05.981Z,313.10
2019-05-05T07:18:05.986Z,312.38
2019-05-05T07:19:05.949Z,311.78
2019-05-05T07:20:05.939Z,311.14
2019-05-05T07:21:05.931Z,312.34
2019-05-05T07:22:05.935Z,311.46
2019-05-05T07:23:05.939Z,310.81
2019-05-05T07:24:05.917Z,310.18
2019-05-05T07:25:05.896Z,313.62
2019-05-05T07:26:05.890Z,313.19
2019-05-05T07:27:05.875Z,313.83
2019-05-05T07:28:05.878Z,316.34
2019-05-05T07:29:05.848Z,316.59
2019-05-05T07:30:05.855Z,315.64
2019-05-05T07:31:05.889Z,317.05
2019-05-05T07:32:05.830Z,313.20
2019-05-05T07:33:05.822Z,312.77
2019-05-05T07:34:05.807Z,312.15
2019-05-05T07:35:05.817Z,311.16
2019-05-05T07:36:06.164Z,311.90
2019-05-05T07:37:05.762Z,311.43
2019-05-05T07:38:05.764Z,310.37
2019-05-05T07:39:05.735Z,310.82
2019-05-05T07:40:05.725Z,310.62
2019-05-05T07:41:05.711Z,309.63
2019-05-05T07:42:05.785Z,310.26
2019-05-05T07:43:05.728Z,310.69
2019-05-05T07:44:05.681Z,310.52
2019-05-05T07:45:19.355Z,310.01
2019-05-05T07:46:06.665Z,308.92
2019-05-05T07:47:05.655Z,310.41
2019-05-05T07:48:06.056Z,310.23
2019-05-05T07:49:05.628Z,310.25
2019-05-05T07:50:05.619Z,309.18
2019-05-05T07:51:05.621Z,309.72
2019-05-05T07:52:05.621Z,309.88
2019-05-05T07:53:14.697Z,309.33
2019-05-05T07:54:06.590Z,309.12
2019-05-05T07:55:05.569Z,308.90
2019-05-05T07:56:07.613Z,308.61
2019-05-05T07:57:05.538Z,308.65
2019-05-05T07:58:05.527Z,309.69
2019-05-05T07:59:05.535Z,309.27
2019-05-05T08:00:05.550Z,309.64
2019-05-05T08:01:05.487Z,310.28
2019-05-05T08:02:05.487Z,310.59
2019-05-05T08:03:05.463Z,310.46
2019-05-05T08:04:05.477Z,310.41
2019-05-05T08:05:05.447Z,310.05
2019-05-05T08:06:05.435Z,309.36
2019-05-05T08:07:05.420Z,309.62
2019-05-05T08:08:05.482Z,309.72
2019-05-05T08:09:05.431Z,309.50
2019-05-05T08:10:05.393Z,308.31
2019-05-05T08:11:05.366Z,309.28
2019-05-05T08:12:05.375Z,308.63
2019-05-05T08:13:05.360Z,308.76
2019-05-05T08:14:05.358Z,308.61
2019-05-05T08:15:05.335Z,311.26
2019-05-05T08:16:05.341Z,311.61
2019-05-05T08:17:05.313Z,311.60
2019-05-05T08:18:05.304Z,310.33
2019-05-05T08:19:05.326Z,309.18
2019-05-05T08:20:05.280Z,308.84
2019-05-05T08:21:05.272Z,308.91
2019-05-05T08:22:05.254Z,311.21
2019-05-05T08:23:08.175Z,310.71
2019-05-05T08:24:05.298Z,310.30
2019-05-05T08:25:05.243Z,310.72
2019-05-05T08:26:05.212Z,310.07
2019-05-05T08:27:05.228Z,311.97
2019-05-05T08:28:05.192Z,312.56
2019-05-05T08:29:05.173Z,312.21
2019-05-05T08:30:05.363Z,311.95
2019-05-05T08:31:05.161Z,308.94
2019-05-05T08:32:05.146Z,309.36
2019-05-05T08:33:05.141Z,310.14
2019-05-05T08:34:05.121Z,310.82
2019-05-05T08:35:05.137Z,310.53
2019-05-05T08:36:05.105Z,310.84
2019-05-05T08:37:05.088Z,310.95
2019-05-05T08:38:05.075Z,311.29
2019-05-05T08:39:05.061Z,316.39
2019-05-05T08:40:05.071Z,313.74
2019-05-05T08:41:05.038Z,312.80
2019-05-05T08:42:05.043Z,312.14
2019-05-05T08:43:05.020Z,309.27
2019-05-05T08:44:05.009Z,309.21
2019-05-05T08:45:05.029Z,309.61
2019-05-05T08:46:05.079Z,308.20
2019-05-05T08:47:04.983Z,308.84
2019-05-05T08:48:05.165Z,309.02
2019-05-05T08:49:04.956Z,308.55
2019-05-05T08:50:04.971Z,309.19
2019-05-05T08:51:05.113Z,309.97
2019-05-05T08:52:04.916Z,310.97
2019-05-05T08:53:08.318Z,312.05
2019-05-05T08:54:04.897Z,314.06
2019-05-05T08:55:04.900Z,314.16
2019-05-05T08:56:04.905Z,312.94
2019-05-05T08:57:04.875Z,314.41
2019-05-05T08:58:04.855Z,314.46
2019-05-05T08:59:04.857Z,310.27
2019-05-05T09:00:05.004Z,309.53
2019-05-05T09:01:04.842Z,310.62
2019-05-05T09:02:04.817Z,310.92
2019-05-05T09:03:04.800Z,310.44
2019-05-05T09:04:04.788Z,310.89
2019-05-05T09:05:04.794Z,310.35
2019-05-05T09:06:04.875Z,309.75
2019-05-05T09:07:05.099Z,310.18
2019-05-05T09:08:04.780Z,310.18
2019-05-05T09:09:04.727Z,310.92
2019-05-05T09:10:04.732Z,314.38
2019-05-05T09:11:05.013Z,307.62
2019-05-05T09:12:04.717Z,310.93
2019-05-05T09:13:04.683Z,311.04
2019-05-05T09:14:04.671Z,311.65
2019-05-05T09:15:04.667Z,309.43
2019-05-05T09:16:04.696Z,308.60
2019-05-05T09:17:04.678Z,312.65
2019-05-05T09:18:05.070Z,309.95
2019-05-05T09:19:04.607Z,309.80
2019-05-05T09:20:04.690Z,309.79
2019-05-05T09:21:04.611Z,309.77
2019-05-05T09:22:08.292Z,309.70
2019-05-05T09:23:04.577Z,309.61
2019-05-05T09:24:05.373Z,309.73
2019-05-05T09:25:04.555Z,309.57
2019-05-05T09:26:04.544Z,310.03
2019-05-05T09:27:04.541Z,308.68
2019-05-05T09:28:06.138Z,307.42
2019-05-05T09:29:04.520Z,307.72
2019-05-05T09:30:04.515Z,307.75
2019-05-05T09:31:04.496Z,306.56
2019-05-05T09:32:04.499Z,305.15
2019-05-05T09:33:04.458Z,304.90
2019-05-05T09:34:04.454Z,304.77
2019-05-05T09:35:04.857Z,305.11
2019-05-05T09:36:04.776Z,306.83
2019-05-05T09:37:04.449Z,306.35
2019-05-05T09:38:04.414Z,308.76
2019-05-05T09:39:04.423Z,308.41
2019-05-05T09:40:04.582Z,305.90
2019-05-05T09:41:04.375Z,308.19
2019-05-05T09:42:04.412Z,307.47
2019-05-05T09:43:04.356Z,308.15
2019-05-05T09:44:04.402Z,307.24
2019-05-05T09:45:04.902Z,308.67
2019-05-05T09:46:04.332Z,306.89
2019-05-05T09:47:04.885Z,308.03
2019-05-05T09:48:04.409Z,308.63
2019-05-05T09:49:04.729Z,308.01
2019-05-05T09:50:04.277Z,308.10
2019-05-05T09:51:04.505Z,308.77
2019-05-05T09:52:04.983Z,308.72
2019-05-05T09:53:04.305Z,308.97
2019-05-05T09:54:11.890Z,307.32
2019-05-05T09:55:05.221Z,308.86
2019-05-05T09:56:04.243Z,306.15
2019-05-05T09:57:04.612Z,307.51
2019-05-05T09:58:04.522Z,307.23
2019-05-05T09:59:04.172Z,307.72
2019-05-05T10:00:04.680Z,309.04
2019-05-05T10:01:04.144Z,309.44
2019-05-05T10:02:04.439Z,308.63
2019-05-05T10:03:04.171Z,307.65
2019-05-05T10:04:04.527Z,308.60
2019-05-05T10:05:04.104Z,307.47
2019-05-05T10:06:04.921Z,307.98
2019-05-05T10:07:04.545Z,307.11
2019-05-05T10:08:04.119Z,308.42
2019-05-05T10:09:04.061Z,309.38
2019-05-05T10:10:04.615Z,307.78
2019-05-05T10:11:04.231Z,309.69
2019-05-05T10:12:04.794Z,305.91
2019-05-05T10:13:04.303Z,305.43
2019-05-05T10:14:04.046Z,307.46
2019-05-05T10:15:07.519Z,308.33
2019-05-05T10:16:04.138Z,306.54
2019-05-05T10:17:04.874Z,307.64
2019-05-05T10:18:03.984Z,308.44
2019-05-05T10:19:04.516Z,306.19
2019-05-05T10:20:04.034Z,307.34
2019-05-05T10:21:04.633Z,308.73
2019-05-05T10:22:04.203Z,307.90
2019-05-05T10:23:03.945Z,309.14
2019-05-05T10:24:04.573Z,308.76
2019-05-05T10:25:04.212Z,307.43
2019-05-05T10:26:04.369Z,308.67
2019-05-05T10:27:04.963Z,304.31
2019-05-05T10:28:04.405Z,309.67
2019-05-05T10:29:04.202Z,310.35
2019-05-05T10:30:04.198Z,306.39
2019-05-05T10:31:04.615Z,307.96
2019-05-05T10:32:04.610Z,309.25
2019-05-05T10:33:03.950Z,308.96
2019-05-05T10:34:04.480Z,307.33
2019-05-05T10:35:04.659Z,310.00
2019-05-05T10:36:03.767Z,309.92
2019-05-05T10:37:04.523Z,309.98
2019-05-05T10:38:03.751Z,309.09
2019-05-05T10:39:04.396Z,309.27
2019-05-05T10:40:03.760Z,309.70
2019-05-05T10:41:04.283Z,308.85
2019-05-05T10:42:04.056Z,305.92
2019-05-05T10:43:04.388Z,308.70
2019-05-05T10:44:05.537Z,305.94
2019-05-05T10:45:04.408Z,308.09
2019-05-05T10:46:03.936Z,307.01
2019-05-05T10:47:04.629Z,305.50
2019-05-05T10:48:04.186Z,307.35
2019-05-05T10:49:03.664Z,308.45
2019-05-05T10:50:05.039Z,303.65
2019-05-05T10:51:04.213Z,308.25
2019-05-05T10:52:03.915Z,308.93
2019-05-05T10:53:04.589Z,304.04
2019-05-05T10:54:04.094Z,308.66
2019-05-05T10:55:03.999Z,303.63
2019-05-05T10:56:04.432Z,306.26
2019-05-05T10:57:04.186Z,306.79
2019-05-05T10:58:03.589Z,308.21
2019-05-05T10:59:04.004Z,304.62
2019-05-05T11:00:12.250Z,309.40
2019-05-05T11:01:04.481Z,308.86
2019-05-05T11:02:04.925Z,307.15
2019-05-05T11:03:04.026Z,309.60
2019-05-05T11:04:03.450Z,308.45
2019-05-05T11:05:04.093Z,310.96
2019-05-05T11:06:04.494Z,307.16
2019-05-05T11:07:04.170Z,305.60
2019-05-05T11:08:04.388Z,306.92
2019-05-05T11:09:04.416Z,309.95
2019-05-05T11:10:03.659Z,309.84
2019-05-05T11:11:04.227Z,309.45
2019-05-05T11:12:03.362Z,302.24
2019-05-05T11:13:03.356Z,307.71
2019-05-05T11:14:03.809Z,301.58
2019-05-05T11:15:04.060Z,309.05
2019-05-05T11:16:04.007Z,308.02
2019-05-05T11:17:04.190Z,308.60
2019-05-05T11:18:03.988Z,300.58
2019-05-05T11:19:04.342Z,303.33
2019-05-05T11:20:03.750Z,307.52
2019-05-05T11:21:04.015Z,307.55
2019-05-05T11:22:03.265Z,310.03
2019-05-05T11:23:04.869Z,307.50
2019-05-05T11:24:03.230Z,305.80
2019-05-05T11:25:05.053Z,309.27
2019-05-05T11:26:03.232Z,309.43
2019-05-05T11:27:04.424Z,308.58
2019-05-05T11:28:03.473Z,306.41
2019-05-05T11:29:04.206Z,302.36
2019-05-05T11:30:03.962Z,307.89
2019-05-05T11:31:04.385Z,309.17
2019-05-05T11:32:03.651Z,303.37
2019-05-05T11:33:04.007Z,309.31
2019-05-05T11:34:03.120Z,300.15
2019-05-05T11:35:04.758Z,307.63
2019-05-05T11:36:04.480Z,306.38
2019-05-05T11:37:03.703Z,308.20
2019-05-05T11:38:03.617Z,305.04
2019-05-05T11:39:04.041Z,308.85
2019-05-05T11:40:04.218Z,308.55
2019-05-05T11:41:04.930Z,308.77
2019-05-05T11:42:04.411Z,306.84
2019-05-05T11:43:03.811Z,309.77
2019-05-05T11:44:04.051Z,308.98
2019-05-05T11:45:04.250Z,308.47
2019-05-05T11:46:02.998Z,302.32
2019-05-05T11:47:03.698Z,307.34
2019-05-05T11:48:02.959Z,308.58
2019-05-05T11:49:04.949Z,306.15
2019-05-05T11:50:04.381Z,303.23
2019-05-05T11:51:04.519Z,308.77
2019-05-05T11:52:04.616Z,304.42
2019-05-05T11:53:03.911Z,303.70
2019-05-05T11:54:04.699Z,298.97
2019-05-05T11:55:11.577Z,305.65
2019-05-05T11:56:04.273Z,299.31
2019-05-05T11:57:04.329Z,308.90
2019-05-05T11:58:03.568Z,305.91
2019-05-05T11:59:03.899Z,307.62
2019-05-05T12:00:03.848Z,301.67
2019-05-05T12:01:03.768Z,301.63
2019-05-05T12:02:03.811Z,307.94
2019-05-05T12:03:03.860Z,302.51
2019-05-05T12:04:04.063Z,305.90
2019-05-05T12:05:04.556Z,308.00
2019-05-05T12:06:04.003Z,309.63
2019-05-05T12:07:04.064Z,307.92
2019-05-05T12:08:03.922Z,306.59
2019-05-05T12:09:02.733Z,309.42
2019-05-05T12:10:02.735Z,305.31
2019-05-05T12:11:04.626Z,308.87
2019-05-05T12:12:03.810Z,308.98
2019-05-05T12:13:04.098Z,309.61
2019-05-05T12:14:03.847Z,309.22
2019-05-05T12:15:04.320Z,309.47
2019-05-05T12:16:04.636Z,309.27
2019-05-05T12:17:04.432Z,309.74
2019-05-05T12:18:03.815Z,309.24
2019-05-05T12:19:02.610Z,307.28
2019-05-05T12:20:04.681Z,308.48
2019-05-05T12:21:05.132Z,307.90
2019-05-05T12:22:02.573Z,304.30
2019-05-05T12:23:04.530Z,308.58
2019-05-05T12:24:03.846Z,307.45
2019-05-05T12:25:04.107Z,307.06
2019-05-05T12:26:04.577Z,310.52
2019-05-05T12:27:03.717Z,306.37
2019-05-05T12:28:04.414Z,305.24
2019-05-05T12:29:02.499Z,307.02
2019-05-05T12:30:03.771Z,309.65
2019-05-05T12:31:03.587Z,300.99
2019-05-05T12:32:02.489Z,304.47